Time;durP1;ratioP1;P1;durP2;ratioP2;P2;SDS_P1;SDS_P2;PMS_P1;PMS_P2;Temp;Humidity;BMP_temperature;BMP_pressure;BME280_temperature;BME280_humidity;BME280_pressure;Samples;Min_cycle;Max_cycle;Signal;HPM_P1;HPM_P2
2022/11/21 00:00:54;;;;;;;7.07;3.60;;;;;;;13.32;100.00;97000.97;5052300;28;20166;-56
2022/11/21 00:03:21;;;;;;;8.13;3.00;;;;;;;13.34;100.00;96970.44;5053640;28;20184;-56
2022/11/21 00:05:47;;;;;;;4.38;2.97;;;;;;;13.38;100.00;96967.38;5053022;28;20244;-55
2022/11/21 00:08:16;;;;;;;4.97;2.53;;;;;;;13.45;100.00;96958.00;5053257;28;20177;-56
2022/11/21 00:10:42;;;;;;;5.43;2.95;;;;;;;13.52;100.00;96963.34;5053412;28;20606;-55
2022/11/21 00:13:12;;;;;;;5.47;3.22;;;;;;;13.57;100.00;96972.31;5053156;28;20234;-55
2022/11/21 00:15:38;;;;;;;5.95;3.22;;;;;;;13.53;100.00;96975.41;5053367;28;20634;-55
2022/11/21 00:18:04;;;;;;;6.30;2.83;;;;;;;13.55;100.00;96943.09;5053442;28;20205;-55
2022/11/21 00:20:30;;;;;;;9.68;4.00;;;;;;;13.56;100.00;96975.88;5052088;28;20187;-55
2022/11/21 00:22:56;;;;;;;6.57;3.05;;;;;;;13.34;100.00;96978.22;5053248;28;20204;-56
2022/11/21 00:25:21;;;;;;;8.85;2.90;;;;;;;13.40;100.00;96933.44;5051695;28;20193;-55
2022/11/21 00:27:47;;;;;;;4.13;2.88;;;;;;;13.40;100.00;96939.47;5052960;28;20257;-55
2022/11/21 00:30:12;;;;;;;7.75;2.90;;;;;;;13.24;100.00;96938.59;5052853;28;20177;-55
2022/11/21 00:32:38;;;;;;;4.70;2.80;;;;;;;13.20;100.00;96919.94;5052846;28;20174;-56
2022/11/21 00:35:05;;;;;;;7.53;3.13;;;;;;;13.27;100.00;96909.69;5052777;28;20213;-55
2022/11/21 00:37:32;;;;;;;6.25;2.95;;;;;;;13.35;100.00;96894.94;5052766;28;20259;-55
2022/11/21 00:39:57;;;;;;;5.07;2.90;;;;;;;13.33;100.00;96885.69;5052517;28;20208;-55
2022/11/21 00:42:22;;;;;;;5.47;2.60;;;;;;;13.33;100.00;96890.88;5052503;28;20227;-55
2022/11/21 00:44:48;;;;;;;4.60;3.10;;;;;;;13.37;100.00;96885.19;5052441;28;20177;-56
2022/11/21 00:47:13;;;;;;;5.80;3.20;;;;;;;13.39;100.00;96905.84;5052404;28;20678;-55
2022/11/21 00:49:39;;;;;;;9.07;2.95;;;;;;;13.20;100.00;96906.13;5052306;28;20177;-55
2022/11/21 00:52:04;;;;;;;6.45;2.90;;;;;;;13.18;100.00;96906.25;5052209;28;20190;-55
2022/11/21 00:54:29;;;;;;;11.43;3.20;;;;;;;13.19;100.00;96926.06;5052349;28;20204;-55
2022/11/21 00:56:55;;;;;;;5.38;2.47;;;;;;;13.18;100.00;96945.22;5052166;28;20192;-55
2022/11/21 00:59:20;;;;;;;11.00;2.55;;;;;;;13.26;100.00;96939.25;5052342;28;20177;-55
2022/11/21 01:01:46;;;;;;;5.47;2.90;;;;;;;13.37;100.00;96962.34;5052148;28;20704;-55
2022/11/21 01:04:11;;;;;;;5.18;2.92;;;;;;;13.25;100.00;96974.00;5051959;28;20189;-55
2022/11/21 01:06:37;;;;;;;7.28;3.10;;;;;;;13.36;100.00;96979.69;5051938;28;20201;-55
2022/11/21 01:09:03;;;;;;;4.75;2.83;;;;;;;13.47;100.00;96991.63;5052174;28;20189;-55
2022/11/21 01:11:29;;;;;;;7.47;2.70;;;;;;;13.51;100.00;96980.75;5052126;28;20601;-55
2022/11/21 01:13:55;;;;;;;5.22;3.13;;;;;;;13.74;100.00;97004.34;5051931;28;20540;-55
2022/11/21 01:16:22;;;;;;;9.32;3.35;;;;;;;13.85;100.00;97049.06;5051858;28;20300;-55
2022/11/21 01:18:48;;;;;;;12.07;3.63;;;;;;;13.89;100.00;97097.16;5052103;28;20185;-55
2022/11/21 01:21:18;;;;;;;11.98;3.65;;;;;;;13.98;100.00;97040.81;5051871;28;20558;-55
2022/11/21 01:23:44;;;;;;;6.75;2.88;;;;;;;13.96;100.00;97040.16;5052076;28;20197;-55
2022/11/21 01:26:12;;;;;;;6.10;2.63;;;;;;;13.92;100.00;96997.25;5052461;28;20204;-55
2022/11/21 01:28:38;;;;;;;7.90;3.10;;;;;;;13.77;100.00;96936.47;5051930;28;20230;-55
2022/11/21 01:31:10;;;;;;;7.22;3.05;;;;;;;13.76;100.00;96953.03;5051643;28;20174;-55
2022/11/21 01:33:36;;;;;;;6.65;2.90;;;;;;;13.86;100.00;96951.09;5051885;28;20214;-55
2022/11/21 01:36:16;;;;;;;9.63;2.65;;;;;;;13.91;100.00;96951.41;5051573;28;20224;-55
2022/11/21 01:38:45;;;;;;;2.40;2.20;;;;;;;13.84;100.00;96943.47;5051888;28;20170;-55
2022/11/21 01:41:11;;;;;;;4.85;1.60;;;;;;;13.82;100.00;96955.78;5051605;28;20178;-55
2022/11/21 01:43:38;;;;;;;7.53;2.25;;;;;;;13.83;100.00;96954.00;5051502;28;20174;-55
2022/11/21 01:46:08;;;;;;;3.97;2.17;;;;;;;13.88;100.00;96946.56;5051622;28;20166;-55
2022/11/21 01:48:38;;;;;;;2.75;1.70;;;;;;;13.83;100.00;96934.00;5051875;28;20170;-55
2022/11/21 01:51:31;;;;;;;4.07;1.17;;;;;;;13.89;100.00;96909.19;5051522;28;20639;-55
2022/11/21 01:54:04;;;;;;;3.97;1.30;;;;;;;13.96;100.00;96915.34;5050461;28;20272;-55
2022/11/21 01:56:36;;;;;;;3.45;1.00;;;;;;;13.95;100.00;96944.94;5051599;28;20573;-55
2022/11/21 01:59:04;;;;;;;5.20;1.20;;;;;;;14.02;100.00;96945.91;5051562;28;20170;-55
2022/11/21 02:01:31;;;;;;;2.08;1.20;;;;;;;14.18;100.00;96956.31;5051353;28;20182;-55
2022/11/21 02:04:00;;;;;;;4.90;1.10;;;;;;;14.30;100.00;96935.03;5051302;28;20583;-55
2022/11/21 02:06:26;;;;;;;3.10;1.15;;;;;;;14.42;100.00;96922.50;5051182;28;20643;-55
2022/11/21 02:08:52;;;;;;;5.70;1.15;;;;;;;14.42;100.00;96899.91;5050053;28;20196;-55
2022/11/21 02:11:27;;;;;;;1.92;1.15;;;;;;;14.47;100.00;96926.22;5051326;28;20178;-55
2022/11/21 02:13:53;;;;;;;1.35;1.00;;;;;;;14.58;100.00;96902.47;5051266;28;20173;-55
2022/11/21 02:16:19;;;;;;;1.67;0.90;;;;;;;14.59;100.00;96904.09;5051192;28;20674;-55
2022/11/21 02:18:44;;;;;;;4.22;1.23;;;;;;;14.53;100.00;96883.94;5051206;28;20181;-55
2022/11/21 02:21:26;;;;;;;5.50;1.17;;;;;;;14.58;100.00;96938.13;5051553;28;20344;-55
2022/11/21 02:23:55;;;;;;;6.55;1.13;;;;;;;14.56;100.00;96929.63;5055370;28;20539;-55
2022/11/21 02:26:21;;;;;;;3.65;1.60;;;;;;;14.49;100.00;96939.91;5054987;28;20181;-56
2022/11/21 02:28:46;;;;;;;4.88;2.25;;;;;;;14.55;100.00;96941.03;5055096;28;20283;-56
2022/11/21 02:31:12;;;;;;;3.65;2.72;;;;;;;14.48;100.00;96932.25;5055201;28;20551;-55
2022/11/21 02:33:37;;;;;;;7.35;3.58;;;;;;;14.37;100.00;96917.00;5055007;28;20664;-56
2022/11/21 02:36:04;;;;;;;4.30;3.47;;;;;;;14.31;100.00;96905.47;5054743;28;20586;-56
2022/11/21 02:38:36;;;;;;;4.43;3.40;;;;;;;14.33;100.00;96877.47;5055100;28;20179;-56
2022/11/21 02:41:16;;;;;;;3.72;2.53;;;;;;;14.34;100.00;96894.72;5054870;28;20181;-56
2022/11/21 02:43:46;;;;;;;5.20;3.03;;;;;;;14.28;100.00;96890.16;5054959;28;20173;-56
2022/11/21 02:46:12;;;;;;;6.35;3.40;;;;;;;14.20;100.00;96902.38;5053456;28;20174;-55
2022/11/21 02:48:38;;;;;;;9.05;3.25;;;;;;;14.09;100.00;96902.66;5054776;28;20303;-56
2022/11/21 02:51:03;;;;;;;3.30;2.97;;;;;;;14.12;100.00;96915.34;5053363;28;20592;-56
2022/11/21 02:53:28;;;;;;;9.20;3.75;;;;;;;13.99;100.00;96899.44;5054803;28;20178;-56
2022/11/21 02:55:54;;;;;;;6.28;3.70;;;;;;;13.90;100.00;96916.00;5054484;28;20194;-56
2022/11/21 02:58:20;;;;;;;7.63;4.22;;;;;;;13.76;100.00;96919.25;5053233;28;20188;-56
2022/11/21 03:00:45;;;;;;;5.95;4.07;;;;;;;13.62;100.00;96917.25;5054467;28;20265;-56
2022/11/21 03:03:11;;;;;;;7.15;3.78;;;;;;;13.50;100.00;96915.94;5054404;28;20261;-56
2022/11/21 03:05:37;;;;;;;6.82;4.10;;;;;;;13.38;100.00;96899.84;5054346;28;20247;-56
2022/11/21 03:08:04;;;;;;;6.03;4.25;;;;;;;13.21;100.00;96892.16;5054320;28;20182;-56
2022/11/21 03:10:29;;;;;;;6.63;3.85;;;;;;;13.12;100.00;96890.53;5054559;28;20181;-56
2022/11/21 03:12:59;;;;;;;9.27;4.68;;;;;;;13.24;100.00;96892.66;5055149;28;20173;-56
2022/11/21 03:15:27;;;;;;;5.72;4.38;;;;;;;13.15;100.00;96898.81;5054377;28;20263;-56
2022/11/21 03:17:52;;;;;;;6.32;4.60;;;;;;;13.16;100.00;96908.22;5054120;28;20189;-56
2022/11/21 03:20:17;;;;;;;6.72;4.38;;;;;;;13.14;100.00;96899.78;5054623;28;20273;-56
2022/11/21 03:22:43;;;;;;;10.45;4.57;;;;;;;13.13;100.00;96897.34;5054055;28;20169;-57
2022/11/21 03:25:08;;;;;;;6.18;4.85;;;;;;;13.12;100.00;96895.72;5054009;28;20647;-56
2022/11/21 03:27:33;;;;;;;5.63;5.10;;;;;;;13.19;100.00;96896.69;5053951;28;20709;-56
2022/11/21 03:29:59;;;;;;;7.82;4.75;;;;;;;13.23;100.00;96887.59;5053877;28;20178;-56
2022/11/21 03:32:24;;;;;;;9.45;5.80;;;;;;;13.32;100.00;96881.47;5053412;28;20209;-56
2022/11/21 03:34:50;;;;;;;11.25;6.47;;;;;;;13.24;100.00;96876.28;5053055;28;20428;-56
2022/11/21 03:37:15;;;;;;;8.45;6.20;;;;;;;13.20;100.00;96859.38;5053777;28;20170;-56
2022/11/21 03:39:41;;;;;;;14.85;9.25;;;;;;;13.22;100.00;96849.63;5053629;28;20204;-56
2022/11/21 03:42:07;;;;;;;13.60;10.23;;;;;;;13.30;100.00;96849.66;5053859;28;20174;-56
2022/11/21 03:44:32;;;;;;;11.40;8.55;;;;;;;13.22;100.00;96839.25;5053649;28;20170;-56
2022/11/21 03:46:57;;;;;;;12.25;8.85;;;;;;;13.13;100.00;96827.22;5053612;28;20181;-56
2022/11/21 03:49:23;;;;;;;17.73;8.68;;;;;;;13.18;100.00;96832.75;5053660;28;20184;-56
2022/11/21 03:51:48;;;;;;;9.88;8.88;;;;;;;13.17;100.00;96821.53;5053764;28;20213;-56
2022/11/21 03:54:14;;;;;;;11.43;7.75;;;;;;;13.30;100.00;96829.66;5053535;28;20205;-56
2022/11/21 03:56:39;;;;;;;9.57;8.32;;;;;;;13.25;100.00;96824.13;5053419;28;20174;-56
2022/11/21 03:59:05;;;;;;;15.82;8.65;;;;;;;13.28;100.00;96830.81;5053393;28;20182;-56
2022/11/21 04:01:31;;;;;;;13.57;9.05;;;;;;;13.33;100.00;96844.13;5053577;28;20181;-55
2022/11/21 04:03:57;;;;;;;15.18;8.93;;;;;;;13.32;100.00;96826.94;5053141;28;20608;-56
2022/11/21 04:06:23;;;;;;;15.52;10.38;;;;;;;13.32;100.00;96843.34;5053019;28;20222;-56
2022/11/21 04:08:49;;;;;;;25.63;23.08;;;;;;;13.25;100.00;96852.72;5051880;28;20668;-56
2022/11/21 04:11:14;;;;;;;13.50;10.15;;;;;;;13.33;100.00;96844.13;5053151;28;20662;-56
2022/11/21 04:13:40;;;;;;;14.23;9.40;;;;;;;13.32;100.00;96842.50;5053109;28;20232;-55
2022/11/21 04:16:05;;;;;;;10.23;9.15;;;;;;;13.26;100.00;96837.94;5052934;28;20194;-56
2022/11/21 04:18:32;;;;;;;11.13;8.55;;;;;;;13.22;100.00;96841.84;5053015;28;20173;-56
2022/11/21 04:20:59;;;;;;;13.95;9.40;;;;;;;13.07;100.00;96839.03;5053000;28;20181;-56
2022/11/21 04:23:26;;;;;;;12.55;8.38;;;;;;;13.05;100.00;96827.19;5052851;28;20185;-56
2022/11/21 04:25:52;;;;;;;13.65;7.82;;;;;;;13.08;100.00;96838.06;5052791;28;20174;-56
2022/11/21 04:28:17;;;;;;;13.52;7.75;;;;;;;13.11;100.00;96831.75;5053017;28;20184;-56
2022/11/21 04:30:43;;;;;;;14.20;7.40;;;;;;;13.02;100.00;96840.50;5052696;28;20248;-56
2022/11/21 04:33:10;;;;;;;9.93;7.72;;;;;;;12.91;100.00;96856.31;5053104;28;20189;-55
2022/11/21 04:35:35;;;;;;;14.90;8.13;;;;;;;12.79;100.00;96849.78;5052596;28;20194;-55
2022/11/21 04:38:01;;;;;;;12.95;8.73;;;;;;;12.88;100.00;96854.84;5052571;28;20204;-56
2022/11/21 04:40:26;;;;;;;11.95;8.90;;;;;;;13.04;100.00;96854.13;5052958;28;20169;-56
2022/11/21 04:42:52;;;;;;;12.38;9.88;;;;;;;13.03;100.00;96836.94;5051479;28;20177;-56
2022/11/21 04:45:17;;;;;;;8.02;5.43;;;;;;;12.96;100.00;96830.75;5052078;28;20173;-56
2022/11/21 04:47:45;;;;;;;12.88;7.35;;;;;;;12.92;100.00;96845.78;5052370;28;20601;-56
2022/11/21 04:50:13;;;;;;;11.30;10.10;;;;;;;12.79;100.00;96839.41;5052624;28;20243;-56
2022/11/21 04:52:39;;;;;;;14.68;9.98;;;;;;;12.64;100.00;96839.19;5052532;28;20212;-57
2022/11/21 04:55:05;;;;;;;13.00;8.45;;;;;;;12.56;100.00;96827.97;5052125;28;20255;-53
2022/11/21 04:57:31;;;;;;;10.07;6.32;;;;;;;12.56;100.00;96833.16;5052183;28;20670;-54
2022/11/21 04:59:57;;;;;;;9.13;5.00;;;;;;;12.55;100.00;96814.16;5052182;28;20178;-55
2022/11/21 05:02:23;;;;;;;11.90;5.38;;;;;;;12.39;100.00;96810.69;5052391;28;20181;-55
2022/11/21 05:04:49;;;;;;;14.55;5.55;;;;;;;12.37;100.00;96812.66;5052082;28;20273;-55
2022/11/21 05:07:15;;;;;;;9.63;4.60;;;;;;;12.29;100.00;96808.22;5051974;28;20280;-55
2022/11/21 05:09:40;;;;;;;10.95;4.47;;;;;;;12.34;100.00;96812.94;5052072;28;20247;-55
2022/11/21 05:14:51;;;;;;;6.18;4.53;;;;;;;12.49;100.00;96819.97;5052106;28;20255;-54
2022/11/21 05:17:17;;;;;;;6.72;4.88;;;;;;;12.56;100.00;96827.97;5051948;28;20323;-55
2022/11/21 05:19:42;;;;;;;7.35;4.85;;;;;;;12.54;100.00;96841.09;5051887;28;20177;-55
2022/11/21 05:22:07;;;;;;;9.77;3.35;;;;;;;12.59;100.00;96851.00;5051895;28;20181;-55
2022/11/21 05:24:33;;;;;;;9.20;3.25;;;;;;;12.47;100.00;96844.44;5051872;28;20563;-55
2022/11/21 05:26:58;;;;;;;4.85;2.78;;;;;;;12.35;100.00;96851.69;5051794;28;20256;-55
2022/11/21 05:29:24;;;;;;;7.15;3.72;;;;;;;12.25;100.00;96853.56;5051918;28;20172;-54
2022/11/21 05:31:49;;;;;;;8.23;5.20;;;;;;;12.22;100.00;96851.31;5051669;28;20557;-55
2022/11/21 05:34:14;;;;;;;11.55;4.55;;;;;;;12.23;100.00;96847.72;5051678;28;20376;-55
2022/11/21 05:36:40;;;;;;;5.28;3.97;;;;;;;12.24;100.00;96835.56;5051564;28;20201;-55
2022/11/21 05:39:05;;;;;;;6.07;2.53;;;;;;;12.15;100.00;96834.72;5051593;28;20177;-55
2022/11/21 05:41:31;;;;;;;8.73;3.30;;;;;;;12.15;100.00;96833.91;5051580;28;20182;-55
2022/11/21 05:43:56;;;;;;;5.80;2.40;;;;;;;12.17;100.00;96843.16;5051582;28;20718;-55
2022/11/21 05:46:24;;;;;;;4.75;1.98;;;;;;;12.17;100.00;96845.75;5051827;28;20190;-55
2022/11/21 05:48:51;;;;;;;6.95;2.63;;;;;;;12.24;100.00;96838.97;5051600;28;20173;-55
2022/11/21 05:51:17;;;;;;;6.45;2.75;;;;;;;12.19;100.00;96849.00;5051804;28;20212;-55
2022/11/21 05:53:43;;;;;;;7.68;2.50;;;;;;;12.27;100.00;96837.88;5050218;28;20193;-54
2022/11/21 05:56:11;;;;;;;10.20;2.85;;;;;;;12.39;100.00;96840.06;5051735;28;20209;-55
2022/11/21 05:58:38;;;;;;;5.82;2.20;;;;;;;12.41;100.00;96839.88;5055668;28;20209;-55
2022/11/21 06:01:04;;;;;;;9.63;2.58;;;;;;;12.62;100.00;96843.72;5055863;28;20605;-55
2022/11/21 06:03:33;;;;;;;11.90;3.78;;;;;;;12.81;100.00;96863.41;5055519;28;20235;-54
2022/11/21 06:06:08;;;;;;;8.77;4.47;;;;;;;12.85;100.00;96875.13;5055451;28;20610;-55
2022/11/21 06:08:36;;;;;;;11.25;4.72;;;;;;;12.85;100.00;96869.94;5055411;28;20161;-54
2022/11/21 06:11:03;;;;;;;11.23;6.70;;;;;;;12.88;100.00;96878.22;5054091;28;20177;-56
2022/11/21 06:13:28;;;;;;;11.43;8.48;;;;;;;12.94;100.00;96879.34;5055491;28;20173;-55
2022/11/21 06:16:05;;;;;;;11.65;8.40;;;;;;;12.95;100.00;96886.19;5055178;28;20204;-55
2022/11/21 06:18:36;;;;;;;18.95;10.20;;;;;;;13.05;100.00;96881.72;5055403;28;20558;-55
2022/11/21 06:21:11;;;;;;;30.65;17.50;;;;;;;13.10;100.00;96884.66;5055212;28;20177;-55
2022/11/21 06:23:37;;;;;;;29.27;17.27;;;;;;;13.09;100.00;96886.44;5055115;28;20673;-56
2022/11/21 06:26:06;;;;;;;27.35;14.55;;;;;;;13.08;100.00;96891.78;5055115;28;20169;-55
2022/11/21 06:28:37;;;;;;;20.50;13.98;;;;;;;13.03;100.00;96888.84;5055077;28;20185;-56
2022/11/21 06:31:07;;;;;;;22.92;14.32;;;;;;;13.07;100.00;96883.19;5054822;28;20213;-56
2022/11/21 06:33:33;;;;;;;21.50;13.93;;;;;;;13.09;100.00;96883.03;5055213;28;20253;-56
2022/11/21 06:36:17;;;;;;;10.05;7.13;;;;;;;13.24;100.00;96876.28;5054843;28;20198;-55
2022/11/21 06:38:43;;;;;;;13.00;8.65;;;;;;;13.23;100.00;96869.44;5055244;28;20166;-55
2022/11/21 06:41:21;;;;;;;16.92;9.55;;;;;;;13.29;100.00;96887.00;5055438;28;20178;-56
2022/11/21 06:43:46;;;;;;;15.95;7.97;;;;;;;13.35;100.00;96881.97;5054998;28;20186;-55
2022/11/21 06:46:13;;;;;;;10.68;7.45;;;;;;;13.41;100.00;96876.13;5054623;28;20339;-55
2022/11/21 06:48:38;;;;;;;14.90;5.70;;;;;;;13.49;100.00;96875.34;5053324;28;20243;-55
2022/11/21 06:51:30;;;;;;;7.35;3.88;;;;;;;13.67;100.00;96878.59;5054918;28;20214;-55
2022/11/21 06:53:57;;;;;;;9.18;5.63;;;;;;;13.76;100.00;96864.66;5054326;28;20580;-55
2022/11/21 06:56:24;;;;;;;5.18;3.47;;;;;;;13.92;100.00;96878.47;5054400;28;20193;-55
2022/11/21 06:58:51;;;;;;;5.28;1.50;;;;;;;14.13;100.00;96875.38;5054487;28;20666;-56
2022/11/21 07:01:17;;;;;;;5.18;1.45;;;;;;;14.76;100.00;96891.84;5054590;28;20239;-55
2022/11/21 07:03:43;;;;;;;12.13;7.65;;;;;;;15.20;100.00;96919.84;5054520;28;20186;-56
2022/11/21 07:06:08;;;;;;;14.73;7.95;;;;;;;15.36;100.00;96916.38;5054214;28;20181;-55
2022/11/21 07:08:35;;;;;;;16.92;8.68;;;;;;;15.35;100.00;96917.38;5053303;28;20185;-55
2022/11/21 07:11:09;;;;;;;15.77;7.75;;;;;;;15.30;100.00;96904.84;5054158;28;20182;-55
2022/11/21 07:13:34;;;;;;;11.93;7.68;;;;;;;15.21;100.00;96905.84;5054909;28;20180;-55
2022/11/21 07:16:13;;;;;;;12.85;7.70;;;;;;;15.20;100.00;96904.22;5054328;28;20193;-56
2022/11/21 07:18:38;;;;;;;8.25;7.07;;;;;;;15.21;100.00;96915.47;5054466;28;20166;-55
2022/11/21 07:21:05;;;;;;;13.77;7.65;;;;;;;15.19;100.00;96923.44;5054180;28;20546;-56
2022/11/21 07:23:32;;;;;;;9.10;3.78;;;;;;;15.18;100.00;96910.56;5053993;28;20651;-56
2022/11/21 07:26:02;;;;;;;6.75;4.28;;;;;;;15.29;100.00;96918.81;5054030;28;20178;-56
2022/11/21 07:28:29;;;;;;;3.55;1.58;;;;;;;15.49;100.00;96924.44;5054055;28;20204;-56
2022/11/21 07:30:59;;;;;;;3.00;1.48;;;;;;;15.66;100.00;96929.41;5054241;28;20204;-56
2022/11/21 07:33:24;;;;;;;3.00;1.80;;;;;;;15.94;100.00;96929.72;5054223;28;20665;-55
2022/11/21 07:35:50;;;;;;;3.47;1.98;;;;;;;16.11;100.00;96937.28;5053821;28;20194;-55
2022/11/21 07:38:16;;;;;;;5.32;2.65;;;;;;;16.25;100.00;96925.22;5053887;28;20613;-56
2022/11/21 07:40:42;;;;;;;10.43;3.75;;;;;;;16.35;100.00;96938.84;5053802;28;20212;-56
2022/11/21 07:43:09;;;;;;;5.40;3.47;;;;;;;16.36;100.00;96930.03;5053811;28;20243;-56
2022/11/21 07:45:35;;;;;;;10.85;4.50;;;;;;;16.45;100.00;96936.84;5054042;28;20173;-56
2022/11/21 07:48:03;;;;;;;6.53;2.20;;;;;;;16.57;100.00;96938.84;5054040;28;20785;-56
2022/11/21 07:50:28;;;;;;;10.25;5.38;;;;;;;16.69;100.00;96941.84;5053724;28;20207;-56
2022/11/21 07:52:58;;;;;;;14.38;5.53;;;;;;;16.75;100.00;96947.16;5053716;28;20182;-56
2022/11/21 07:55:24;;;;;;;10.35;5.07;;;;;;;16.82;100.00;96952.47;5052258;28;20622;-56
2022/11/21 07:57:58;;;;;;;12.60;5.70;;;;;;;16.82;100.00;96936.78;5053824;28;20251;-56
2022/11/21 08:00:25;;;;;;;8.18;4.60;;;;;;;16.83;100.00;96949.69;5053564;28;20203;-56
2022/11/21 08:02:50;;;;;;;10.75;4.53;;;;;;;16.92;100.00;96950.41;5053088;28;20193;-56
2022/11/21 08:05:16;;;;;;;8.68;3.67;;;;;;;16.98;100.00;96947.09;5052980;28;20189;-56
2022/11/21 08:07:41;;;;;;;6.85;3.53;;;;;;;17.02;100.00;96949.16;5053310;28;20162;-55
2022/11/21 08:10:07;;;;;;;9.18;3.45;;;;;;;17.16;100.00;96955.38;5053140;28;20253;-56
2022/11/21 08:12:32;;;;;;;12.85;3.33;;;;;;;17.22;100.00;96965.09;5053314;28;20657;-56
2022/11/21 08:14:57;;;;;;;6.75;3.20;;;;;;;17.29;100.00;96960.75;5053235;28;20200;-56
2022/11/21 08:17:25;;;;;;;6.90;3.47;;;;;;;17.38;100.00;96964.94;5053015;28;20694;-56
2022/11/21 08:19:51;;;;;;;10.05;3.38;;;;;;;17.47;100.00;96963.84;5052178;28;20184;-56
2022/11/21 08:22:16;;;;;;;11.02;3.30;;;;;;;17.52;100.00;96977.19;5052879;28;20561;-56
2022/11/21 08:24:41;;;;;;;13.23;4.13;;;;;;;17.60;100.00;96979.72;5053094;28;20227;-56
2022/11/21 08:27:07;;;;;;;7.00;3.60;;;;;;;17.62;100.00;96983.78;5053004;28;20578;-56
2022/11/21 08:29:32;;;;;;;6.28;3.22;;;;;;;17.65;100.00;96993.03;5052836;28;20715;-56
2022/11/21 08:31:57;;;;;;;13.32;3.90;;;;;;;17.73;100.00;96982.47;5052591;28;20165;-57
2022/11/21 08:34:23;;;;;;;12.48;3.85;;;;;;;17.80;100.00;96985.97;5052537;28;20647;-56
2022/11/21 08:36:48;;;;;;;6.30;3.78;;;;;;;17.84;100.00;96987.25;5052621;28;20259;-56
2022/11/21 08:39:14;;;;;;;11.23;3.50;;;;;;;17.94;100.00;96985.13;5052812;28;20172;-56
2022/11/21 08:44:22;;;;;;;11.15;3.58;;;;;;;18.15;100.00;96995.63;5052785;28;20183;-56
2022/11/21 08:46:48;;;;;;;8.57;3.60;;;;;;;18.20;100.00;96991.44;5052299;28;20641;-55
2022/11/21 08:49:14;;;;;;;10.85;4.00;;;;;;;18.26;100.00;96982.84;5052331;28;20183;-56
2022/11/21 08:51:39;;;;;;;11.38;4.07;;;;;;;18.31;100.00;96982.28;5052322;28;20238;-56
2022/11/21 08:54:05;;;;;;;12.80;3.50;;;;;;;18.45;100.00;96991.91;5052447;28;20176;-56
2022/11/21 08:56:30;;;;;;;11.05;3.53;;;;;;;18.52;100.00;96992.75;5052121;28;20193;-56
2022/11/21 08:58:56;;;;;;;9.32;4.25;;;;;;;18.58;100.00;96986.78;5052205;28;20180;-56
2022/11/21 09:01:22;;;;;;;8.90;3.50;;;;;;;18.65;88.94;96990.28;5052138;28;20193;-56
2022/11/21 09:03:47;;;;;;;8.02;3.55;;;;;;;18.70;88.07;96993.94;5052065;28;20173;-57
2022/11/21 09:06:13;;;;;;;10.50;3.30;;;;;;;18.73;86.76;97003.25;5049463;28;20546;-56
2022/11/21 09:08:38;;;;;;;8.00;3.80;;;;;;;18.69;85.90;96999.38;5051634;28;20261;-56
2022/11/21 09:11:05;;;;;;;6.95;3.13;;;;;;;18.69;84.87;96999.38;5051943;28;20187;-56
2022/11/21 09:13:31;;;;;;;14.15;4.07;;;;;;;18.76;81.62;96992.38;5052320;28;20197;-56
2022/11/21 09:18:41;;;;;;;8.98;4.05;;;;;;;18.77;80.98;96994.00;5052233;28;20168;-56
2022/11/21 09:21:07;;;;;;;9.40;3.88;;;;;;;18.68;80.96;96985.47;5051850;28;20173;-56
2022/11/21 09:23:32;;;;;;;10.13;3.65;;;;;;;18.60;81.87;96990.03;5051782;28;20189;-56
2022/11/21 09:26:00;;;;;;;6.63;3.40;;;;;;;18.59;80.38;96993.66;5051683;28;20165;-56
2022/11/21 09:28:25;;;;;;;8.52;3.45;;;;;;;18.68;80.12;96998.56;5051744;28;20173;-56
2022/11/21 09:30:51;;;;;;;10.75;2.92;;;;;;;18.70;79.18;96993.13;5051735;28;20175;-56
2022/11/21 09:33:16;;;;;;;7.15;2.40;;;;;;;18.80;76.95;96997.06;5051635;28;20279;-56
2022/11/21 09:35:42;;;;;;;6.35;2.90;;;;;;;18.82;77.94;96986.38;5051871;28;20276;-56
2022/11/21 09:38:07;;;;;;;5.82;2.80;;;;;;;18.85;78.26;96984.19;5051661;28;20638;-56
2022/11/21 09:40:34;;;;;;;7.57;2.58;;;;;;;18.86;78.53;96980.56;5051704;28;20173;-56
2022/11/21 09:43:25;;;;;;;7.72;2.50;;;;;;;18.89;78.31;96976.75;5051615;28;20169;-57
2022/11/21 09:45:56;;;;;;;8.52;2.45;;;;;;;18.89;79.37;96974.13;5051922;28;20203;-56
2022/11/21 09:48:44;;;;;;;7.40;2.38;;;;;;;18.74;77.32;96978.66;5051741;28;20157;-56
2022/11/21 09:51:13;;;;;;;4.57;2.13;;;;;;;18.70;74.72;96972.16;5051730;28;20245;-57
2022/11/21 09:53:55;;;;;;;6.45;2.55;;;;;;;18.61;76.94;96973.31;5051534;28;20227;-56
2022/11/21 09:56:22;;;;;;;6.75;2.63;;;;;;;18.65;76.63;96961.47;5051720;28;20272;-56
2022/11/21 09:59:18;;;;;;;4.88;1.40;;;;;;;18.70;67.50;96959.88;5051500;28;20251;-56
2022/11/21 10:01:44;;;;;;;2.67;1.20;;;;;;;18.77;61.70;96973.84;5050231;28;20187;-56
2022/11/21 10:04:09;;;;;;;0.70;0.60;;;;;;;18.86;57.68;96966.63;5051522;28;20188;-56
2022/11/21 10:06:58;;;;;;;2.40;1.23;;;;;;;18.91;60.52;96961.63;5050033;28;20192;-56
2022/11/21 10:09:32;;;;;;;1.73;0.68;;;;;;;19.00;57.39;96960.50;5051333;28;20394;-56
2022/11/21 10:15:19;;;;;;;5.88;1.55;;;;;;;19.23;58.92;96946.13;5050075;28;20192;-56
2022/11/21 10:17:54;;;;;;;6.57;1.90;;;;;;;19.23;65.20;96968.94;5051688;28;20244;-56
2022/11/21 10:20:41;;;;;;;7.80;2.28;;;;;;;19.33;63.36;96954.47;5051588;28;20156;-57
2022/11/21 10:23:15;;;;;;;1.73;1.63;;;;;;;19.42;57.27;96970.84;5051727;28;20164;-56
2022/11/21 10:25:54;;;;;;;4.65;1.40;;;;;;;19.39;57.91;96968.59;5051800;28;20185;-57
2022/11/21 10:28:47;;;;;;;3.60;1.67;;;;;;;19.38;59.50;96975.66;5051478;28;20156;-56
2022/11/21 10:31:14;;;;;;;9.85;1.92;;;;;;;19.45;60.58;96970.44;5050357;28;20232;-56
2022/11/21 10:33:40;;;;;;;7.32;2.28;;;;;;;19.37;62.08;96973.25;5051186;28;20247;-56
2022/11/21 10:36:36;;;;;;;4.30;2.08;;;;;;;19.36;62.85;96971.63;5051225;28;20687;-57
2022/11/21 10:39:12;;;;;;;9.80;2.45;;;;;;;19.30;64.28;96973.19;5051061;28;20189;-57
2022/11/21 10:41:40;;;;;;;4.13;2.00;;;;;;;19.36;64.23;96976.88;5051218;28;20283;-57
2022/11/21 10:47:26;;;;;;;7.35;2.40;;;;;;;19.22;65.44;96977.78;5055253;28;20183;-57
2022/11/21 10:50:29;;;;;;;3.90;1.42;;;;;;;19.19;63.17;96975.53;5055611;28;20210;-57
2022/11/21 10:56:01;;;;;;;0.45;0.45;;;;;;;19.26;50.93;96981.66;5054810;28;20203;-56
2022/11/21 10:58:36;;;;;;;0.38;0.38;;;;;;;19.26;51.50;96976.41;5054747;28;20172;-56
2022/11/21 11:01:01;;;;;;;2.03;1.83;;;;;;;19.23;53.62;96976.81;5054841;28;20172;-57
2022/11/21 11:03:30;;;;;;;2.03;1.10;;;;;;;19.19;55.63;96983.41;5054839;28;20173;-56
2022/11/21 11:05:58;;;;;;;4.13;0.90;;;;;;;19.19;57.83;96975.53;5054502;28;20216;-57
2022/11/21 11:08:26;;;;;;;1.05;0.85;;;;;;;19.14;62.13;96977.91;5054556;28;20201;-56
2022/11/21 11:11:12;;;;;;;1.85;0.70;;;;;;;19.14;61.77;96980.53;5054463;28;20173;-56
2022/11/21 11:14:05;;;;;;;2.22;0.95;;;;;;;19.15;61.45;96985.59;5054754;28;20630;-56
2022/11/21 11:16:34;;;;;;;0.65;0.57;;;;;;;19.18;54.40;96985.19;5054158;28;20205;-56
2022/11/21 11:19:14;;;;;;;2.42;0.93;;;;;;;19.18;55.82;96984.41;5054438;28;20176;-57
2022/11/21 11:21:39;;;;;;;7.65;1.48;;;;;;;19.25;59.88;96977.41;5054384;28;20633;-56
2022/11/21 11:24:08;;;;;;;2.42;1.08;;;;;;;19.21;62.00;96984.84;5054271;28;20177;-57
2022/11/21 11:26:33;;;;;;;5.10;1.50;;;;;;;19.17;62.87;96977.53;5054512;28;20191;-56
2022/11/21 11:29:29;;;;;;;1.30;0.90;;;;;;;19.17;61.07;96982.78;5054117;28;20569;-56
2022/11/21 11:31:57;;;;;;;2.95;1.40;;;;;;;19.21;61.23;96999.78;5053941;28;20283;-56
2022/11/21 11:34:27;;;;;;;3.85;1.40;;;;;;;19.19;66.33;96993.88;5054133;28;20173;-56
2022/11/21 11:36:54;;;;;;;1.70;1.20;;;;;;;19.18;68.64;96998.31;5054088;28;20291;-57
2022/11/21 11:39:31;;;;;;;4.47;1.10;;;;;;;19.12;70.26;97006.16;5054204;28;20280;-56
2022/11/21 11:47:59;;;;;;;1.80;0.93;;;;;;;18.75;71.49;97009.09;5053602;28;20188;-56
2022/11/21 11:50:54;;;;;;;1.35;0.98;;;;;;;18.64;70.41;97012.22;5053678;28;20184;-56
2022/11/21 11:53:20;;;;;;;4.13;0.95;;;;;;;18.47;70.52;97016.13;5053061;28;20192;-57